Amelia, Nebraska
Current Conditions -  °F | °C
As of 11:15 PM on Friday 24 Oct 2014 (Local Time) from KONL Reporting Station
Clear Clear  
Wind Chill: 51°   Ceiling: Unl
Heat Index: 51°   Visibility: 10mi
Dew Point: 41°   Wind: 0mph
Humidity: 68%   Direction: NA
Pressure: 30.04"   Gusts: NA
Location:  42.24°N, 98.91°W
Report Text: KONL 250415Z AUTO 00000KT 10SM CLR 11/05 A3004 RMK AO2 T01080052
Loading
Personal Weather Stations






























Interactive Weather Map New forecast layout! Learn more

10-Day Weather Forecast

Advertisements
Track Severe Weather on mobile